sensor_id;sensor_type;location;lat;lon;timestamp;P1;durP1;ratioP1;P2;durP2;ratioP2
41927;SDS011;27616;51.420;6.788;2023-01-16T00:00:27;10.00;;;1.60;;
41927;SDS011;27616;51.420;6.788;2023-01-16T00:02:53;8.60;;;1.67;;
41927;SDS011;27616;51.420;6.788;2023-01-16T00:05:19;5.63;;;0.87;;
41927;SDS011;27616;51.420;6.788;2023-01-16T00:07:44;6.40;;;1.03;;
41927;SDS011;27616;51.420;6.788;2023-01-16T00:10:10;4.50;;;0.80;;
41927;SDS011;27616;51.420;6.788;2023-01-16T00:12:37;6.57;;;0.90;;
41927;SDS011;27616;51.420;6.788;2023-01-16T00:15:03;3.73;;;0.90;;
41927;SDS011;27616;51.420;6.788;2023-01-16T00:17:29;5.77;;;0.73;;
41927;SDS011;27616;51.420;6.788;2023-01-16T00:19:54;3.30;;;0.70;;
41927;SDS011;27616;51.420;6.788;2023-01-16T00:22:20;4.43;;;0.90;;
41927;SDS011;27616;51.420;6.788;2023-01-16T00:24:46;4.00;;;0.83;;
41927;SDS011;27616;51.420;6.788;2023-01-16T00:27:11;5.00;;;0.70;;
41927;SDS011;27616;51.420;6.788;2023-01-16T00:29:37;5.63;;;1.00;;
41927;SDS011;27616;51.420;6.788;2023-01-16T00:32:03;4.53;;;0.80;;
41927;SDS011;27616;51.420;6.788;2023-01-16T00:34:29;6.83;;;1.77;;
41927;SDS011;27616;51.420;6.788;2023-01-16T00:36:54;3.63;;;0.90;;
41927;SDS011;27616;51.420;6.788;2023-01-16T00:39:20;5.83;;;1.03;;
41927;SDS011;27616;51.420;6.788;2023-01-16T00:41:46;2.63;;;0.80;;
41927;SDS011;27616;51.420;6.788;2023-01-16T00:44:12;7.37;;;1.00;;
41927;SDS011;27616;51.420;6.788;2023-01-16T00:46:37;3.53;;;0.60;;
41927;SDS011;27616;51.420;6.788;2023-01-16T00:49:03;4.33;;;0.73;;
41927;SDS011;27616;51.420;6.788;2023-01-16T00:51:29;5.13;;;0.87;;
41927;SDS011;27616;51.420;6.788;2023-01-16T00:53:54;4.70;;;0.80;;
41927;SDS011;27616;51.420;6.788;2023-01-16T00:56:20;3.90;;;0.80;;
41927;SDS011;27616;51.420;6.788;2023-01-16T00:58:46;4.03;;;0.77;;
41927;SDS011;27616;51.420;6.788;2023-01-16T01:01:11;4.03;;;0.70;;
41927;SDS011;27616;51.420;6.788;2023-01-16T01:03:37;5.03;;;0.83;;
41927;SDS011;27616;51.420;6.788;2023-01-16T01:06:07;2.70;;;0.60;;
41927;SDS011;27616;51.420;6.788;2023-01-16T01:08:34;3.50;;;0.83;;
41927;SDS011;27616;51.420;6.788;2023-01-16T01:11:06;2.53;;;0.67;;
41927;SDS011;27616;51.420;6.788;2023-01-16T01:13:37;5.07;;;0.63;;
41927;SDS011;27616;51.420;6.788;2023-01-16T01:16:03;7.63;;;1.50;;
41927;SDS011;27616;51.420;6.788;2023-01-16T01:18:30;3.03;;;0.77;;
41927;SDS011;27616;51.420;6.788;2023-01-16T01:20:55;3.23;;;0.80;;
41927;SDS011;27616;51.420;6.788;2023-01-16T01:23:21;2.47;;;0.80;;
41927;SDS011;27616;51.420;6.788;2023-01-16T01:25:47;3.93;;;0.90;;
41927;SDS011;27616;51.420;6.788;2023-01-16T01:28:14;3.37;;;0.87;;
41927;SDS011;27616;51.420;6.788;2023-01-16T01:30:40;4.60;;;0.80;;
41927;SDS011;27616;51.420;6.788;2023-01-16T01:33:06;4.83;;;0.90;;
41927;SDS011;27616;51.420;6.788;2023-01-16T01:35:33;8.13;;;1.10;;
41927;SDS011;27616;51.420;6.788;2023-01-16T01:37:59;4.23;;;0.90;;
41927;SDS011;27616;51.420;6.788;2023-01-16T01:40:25;6.03;;;1.20;;
41927;SDS011;27616;51.420;6.788;2023-01-16T01:42:51;4.57;;;1.37;;
41927;SDS011;27616;51.420;6.788;2023-01-16T01:45:32;9.73;;;1.07;;
41927;SDS011;27616;51.420;6.788;2023-01-16T01:50:38;3.58;;;1.00;;
41927;SDS011;27616;51.420;6.788;2023-01-16T01:53:09;4.07;;;0.87;;
41927;SDS011;27616;51.420;6.788;2023-01-16T01:55:39;7.77;;;1.27;;
41927;SDS011;27616;51.420;6.788;2023-01-16T01:58:07;5.00;;;0.93;;
41927;SDS011;27616;51.420;6.788;2023-01-16T02:00:34;3.47;;;0.97;;
41927;SDS011;27616;51.420;6.788;2023-01-16T02:03:05;4.73;;;0.90;;
41927;SDS011;27616;51.420;6.788;2023-01-16T02:05:40;2.20;;;0.90;;
41927;SDS011;27616;51.420;6.788;2023-01-16T02:08:12;4.33;;;0.80;;
41927;SDS011;27616;51.420;6.788;2023-01-16T02:10:49;7.93;;;1.50;;
41927;SDS011;27616;51.420;6.788;2023-01-16T02:13:20;4.63;;;0.83;;
41927;SDS011;27616;51.420;6.788;2023-01-16T02:15:45;2.80;;;0.77;;
41927;SDS011;27616;51.420;6.788;2023-01-16T02:18:30;5.57;;;1.70;;
41927;SDS011;27616;51.420;6.788;2023-01-16T02:21:23;4.77;;;0.97;;
41927;SDS011;27616;51.420;6.788;2023-01-16T02:27:05;7.87;;;1.40;;
41927;SDS011;27616;51.420;6.788;2023-01-16T02:35:34;5.17;;;1.10;;
41927;SDS011;27616;51.420;6.788;2023-01-16T02:43:30;5.33;;;0.90;;
41927;SDS011;27616;51.420;6.788;2023-01-16T02:46:05;4.37;;;0.70;;
41927;SDS011;27616;51.420;6.788;2023-01-16T02:56:45;4.57;;;0.90;;
41927;SDS011;27616;51.420;6.788;2023-01-16T02:59:16;3.13;;;0.80;;
41927;SDS011;27616;51.420;6.788;2023-01-16T03:01:44;3.10;;;0.90;;
41927;SDS011;27616;51.420;6.788;2023-01-16T03:12:13;7.97;;;1.20;;
41927;SDS011;27616;51.420;6.788;2023-01-16T03:14:47;3.07;;;0.70;;
41927;SDS011;27616;51.420;6.788;2023-01-16T03:20:18;3.63;;;1.00;;
41927;SDS011;27616;51.420;6.788;2023-01-16T03:23:09;4.43;;;0.73;;
41927;SDS011;27616;51.420;6.788;2023-01-16T03:26:02;4.60;;;1.00;;
41927;SDS011;27616;51.420;6.788;2023-01-16T03:31:05;4.80;;;0.83;;
41927;SDS011;27616;51.420;6.788;2023-01-16T03:33:52;4.20;;;0.83;;
41927;SDS011;27616;51.420;6.788;2023-01-16T03:36:53;2.33;;;0.63;;
41927;SDS011;27616;51.420;6.788;2023-01-16T03:39:23;2.27;;;0.70;;
41927;SDS011;27616;51.420;6.788;2023-01-16T03:41:52;4.43;;;0.85;;
41927;SDS011;27616;51.420;6.788;2023-01-16T03:44:24;4.68;;;0.70;;
41927;SDS011;27616;51.420;6.788;2023-01-16T03:46:58;2.27;;;0.70;;
41927;SDS011;27616;51.420;6.788;2023-01-16T03:49:29;3.63;;;0.60;;
41927;SDS011;27616;51.420;6.788;2023-01-16T03:51:58;3.03;;;0.67;;
41927;SDS011;27616;51.420;6.788;2023-01-16T03:57:07;1.57;;;0.70;;
41927;SDS011;27616;51.420;6.788;2023-01-16T03:59:34;2.07;;;0.60;;
41927;SDS011;27616;51.420;6.788;2023-01-16T04:02:23;3.33;;;0.67;;
41927;SDS011;27616;51.420;6.788;2023-01-16T04:05:25;1.93;;;0.50;;
41927;SDS011;27616;51.420;6.788;2023-01-16T04:10:54;4.03;;;0.75;;
41927;SDS011;27616;51.420;6.788;2023-01-16T04:13:21;1.80;;;0.30;;
41927;SDS011;27616;51.420;6.788;2023-01-16T04:15:52;3.47;;;0.70;;
41927;SDS011;27616;51.420;6.788;2023-01-16T04:18:21;1.93;;;0.43;;
41927;SDS011;27616;51.420;6.788;2023-01-16T04:20:52;1.87;;;0.43;;
41927;SDS011;27616;51.420;6.788;2023-01-16T04:23:17;2.00;;;0.40;;
41927;SDS011;27616;51.420;6.788;2023-01-16T04:25:46;2.10;;;0.43;;
41927;SDS011;27616;51.420;6.788;2023-01-16T04:28:12;3.65;;;0.50;;
41927;SDS011;27616;51.420;6.788;2023-01-16T04:30:38;5.97;;;1.03;;
41927;SDS011;27616;51.420;6.788;2023-01-16T04:33:03;4.20;;;0.70;;
41927;SDS011;27616;51.420;6.788;2023-01-16T04:35:29;1.03;;;0.37;;
41927;SDS011;27616;51.420;6.788;2023-01-16T04:37:56;1.50;;;0.40;;
41927;SDS011;27616;51.420;6.788;2023-01-16T04:40:22;1.57;;;0.40;;
41927;SDS011;27616;51.420;6.788;2023-01-16T04:42:48;1.67;;;0.60;;
41927;SDS011;27616;51.420;6.788;2023-01-16T04:45:13;2.23;;;0.60;;
41927;SDS011;27616;51.420;6.788;2023-01-16T04:47:39;2.57;;;0.50;;
41927;SDS011;27616;51.420;6.788;2023-01-16T04:50:05;1.97;;;0.50;;
41927;SDS011;27616;51.420;6.788;2023-01-16T04:52:32;2.90;;;0.40;;
41927;SDS011;27616;51.420;6.788;2023-01-16T04:54:57;2.00;;;0.50;;
41927;SDS011;27616;51.420;6.788;2023-01-16T04:57:23;2.73;;;0.60;;
41927;SDS011;27616;51.420;6.788;2023-01-16T04:59:49;3.27;;;0.70;;
41927;SDS011;27616;51.420;6.788;2023-01-16T05:02:15;1.53;;;0.60;;
41927;SDS011;27616;51.420;6.788;2023-01-16T05:04:40;6.33;;;0.73;;
41927;SDS011;27616;51.420;6.788;2023-01-16T05:07:06;4.23;;;0.73;;
41927;SDS011;27616;51.420;6.788;2023-01-16T05:09:32;2.80;;;0.83;;
41927;SDS011;27616;51.420;6.788;2023-01-16T05:11:57;4.80;;;1.00;;
41927;SDS011;27616;51.420;6.788;2023-01-16T05:14:23;3.60;;;0.90;;
41927;SDS011;27616;51.420;6.788;2023-01-16T05:16:49;3.57;;;0.50;;
41927;SDS011;27616;51.420;6.788;2023-01-16T05:19:15;5.37;;;0.93;;
41927;SDS011;27616;51.420;6.788;2023-01-16T05:21:40;4.13;;;1.10;;
41927;SDS011;27616;51.420;6.788;2023-01-16T05:24:06;6.00;;;1.00;;
41927;SDS011;27616;51.420;6.788;2023-01-16T05:26:32;3.40;;;0.60;;
41927;SDS011;27616;51.420;6.788;2023-01-16T05:28:57;4.57;;;0.73;;
41927;SDS011;27616;51.420;6.788;2023-01-16T05:31:23;5.23;;;0.70;;
41927;SDS011;27616;51.420;6.788;2023-01-16T05:33:49;3.63;;;0.73;;
41927;SDS011;27616;51.420;6.788;2023-01-16T05:36:15;3.53;;;1.00;;
41927;SDS011;27616;51.420;6.788;2023-01-16T05:38:41;3.80;;;0.60;;
41927;SDS011;27616;51.420;6.788;2023-01-16T05:41:07;3.07;;;0.70;;
41927;SDS011;27616;51.420;6.788;2023-01-16T05:43:32;2.37;;;0.70;;
41927;SDS011;27616;51.420;6.788;2023-01-16T05:45:58;3.73;;;0.70;;
41927;SDS011;27616;51.420;6.788;2023-01-16T05:48:24;3.57;;;0.83;;
41927;SDS011;27616;51.420;6.788;2023-01-16T05:50:50;1.30;;;0.60;;
41927;SDS011;27616;51.420;6.788;2023-01-16T05:53:16;2.30;;;0.70;;
41927;SDS011;27616;51.420;6.788;2023-01-16T05:55:45;5.50;;;0.77;;
41927;SDS011;27616;51.420;6.788;2023-01-16T05:58:12;2.27;;;0.60;;
41927;SDS011;27616;51.420;6.788;2023-01-16T06:00:39;3.93;;;0.70;;
41927;SDS011;27616;51.420;6.788;2023-01-16T06:03:06;3.57;;;0.67;;
41927;SDS011;27616;51.420;6.788;2023-01-16T06:05:32;2.57;;;0.73;;
41927;SDS011;27616;51.420;6.788;2023-01-16T06:07:58;1.27;;;0.53;;
41927;SDS011;27616;51.420;6.788;2023-01-16T06:10:24;4.17;;;0.90;;
41927;SDS011;27616;51.420;6.788;2023-01-16T06:12:51;3.57;;;1.53;;
41927;SDS011;27616;51.420;6.788;2023-01-16T06:15:16;4.00;;;0.80;;
41927;SDS011;27616;51.420;6.788;2023-01-16T06:17:42;2.40;;;0.80;;
41927;SDS011;27616;51.420;6.788;2023-01-16T06:20:09;4.30;;;0.77;;
41927;SDS011;27616;51.420;6.788;2023-01-16T06:22:35;8.67;;;1.33;;
41927;SDS011;27616;51.420;6.788;2023-01-16T06:25:01;3.77;;;0.70;;
41927;SDS011;27616;51.420;6.788;2023-01-16T06:27:27;6.40;;;1.33;;
41927;SDS011;27616;51.420;6.788;2023-01-16T06:29:53;1.93;;;0.60;;
41927;SDS011;27616;51.420;6.788;2023-01-16T06:32:19;2.73;;;0.77;;
41927;SDS011;27616;51.420;6.788;2023-01-16T06:34:44;1.40;;;0.30;;
41927;SDS011;27616;51.420;6.788;2023-01-16T06:37:10;3.53;;;0.57;;
41927;SDS011;27616;51.420;6.788;2023-01-16T06:39:36;1.27;;;0.40;;
41927;SDS011;27616;51.420;6.788;2023-01-16T06:42:02;1.53;;;0.40;;
41927;SDS011;27616;51.420;6.788;2023-01-16T06:44:30;1.70;;;0.40;;
41927;SDS011;27616;51.420;6.788;2023-01-16T06:46:57;2.53;;;0.70;;
41927;SDS011;27616;51.420;6.788;2023-01-16T06:49:23;3.60;;;0.70;;
41927;SDS011;27616;51.420;6.788;2023-01-16T06:51:49;4.67;;;0.70;;
41927;SDS011;27616;51.420;6.788;2023-01-16T06:54:15;3.43;;;1.10;;
41927;SDS011;27616;51.420;6.788;2023-01-16T06:56:40;2.90;;;0.60;;
41927;SDS011;27616;51.420;6.788;2023-01-16T06:59:06;2.03;;;0.43;;
41927;SDS011;27616;51.420;6.788;2023-01-16T07:01:32;3.43;;;0.80;;
41927;SDS011;27616;51.420;6.788;2023-01-16T07:03:58;2.30;;;0.50;;
41927;SDS011;27616;51.420;6.788;2023-01-16T07:06:23;1.63;;;0.43;;
41927;SDS011;27616;51.420;6.788;2023-01-16T07:08:49;2.63;;;0.47;;
41927;SDS011;27616;51.420;6.788;2023-01-16T07:11:16;3.13;;;0.60;;
41927;SDS011;27616;51.420;6.788;2023-01-16T07:13:42;2.20;;;0.57;;
41927;SDS011;27616;51.420;6.788;2023-01-16T07:16:11;3.47;;;0.90;;
41927;SDS011;27616;51.420;6.788;2023-01-16T07:18:58;3.57;;;0.63;;
41927;SDS011;27616;51.420;6.788;2023-01-16T07:21:43;1.40;;;0.70;;
41927;SDS011;27616;51.420;6.788;2023-01-16T07:24:49;3.27;;;0.90;;
41927;SDS011;27616;51.420;6.788;2023-01-16T07:27:15;4.80;;;1.07;;
41927;SDS011;27616;51.420;6.788;2023-01-16T07:29:41;3.00;;;0.60;;
41927;SDS011;27616;51.420;6.788;2023-01-16T07:32:06;2.00;;;0.67;;
41927;SDS011;27616;51.420;6.788;2023-01-16T07:34:32;2.23;;;0.57;;
41927;SDS011;27616;51.420;6.788;2023-01-16T07:37:00;4.17;;;0.80;;
41927;SDS011;27616;51.420;6.788;2023-01-16T07:39:25;2.67;;;0.90;;
41927;SDS011;27616;51.420;6.788;2023-01-16T07:41:51;3.97;;;0.90;;
41927;SDS011;27616;51.420;6.788;2023-01-16T07:44:17;3.63;;;0.70;;
41927;SDS011;27616;51.420;6.788;2023-01-16T07:46:43;2.03;;;0.70;;
41927;SDS011;27616;51.420;6.788;2023-01-16T07:49:08;3.80;;;1.03;;
41927;SDS011;27616;51.420;6.788;2023-01-16T07:51:34;5.10;;;1.30;;
41927;SDS011;27616;51.420;6.788;2023-01-16T07:54:00;4.00;;;1.10;;
41927;SDS011;27616;51.420;6.788;2023-01-16T07:56:25;6.70;;;1.33;;
41927;SDS011;27616;51.420;6.788;2023-01-16T07:58:51;4.57;;;1.50;;
41927;SDS011;27616;51.420;6.788;2023-01-16T08:01:19;6.33;;;1.53;;
41927;SDS011;27616;51.420;6.788;2023-01-16T08:03:45;4.17;;;1.20;;
41927;SDS011;27616;51.420;6.788;2023-01-16T08:06:10;3.70;;;0.93;;
41927;SDS011;27616;51.420;6.788;2023-01-16T08:08:36;3.93;;;1.33;;
41927;SDS011;27616;51.420;6.788;2023-01-16T08:11:02;6.03;;;1.40;;
41927;SDS011;27616;51.420;6.788;2023-01-16T08:13:50;34.47;;;17.63;;
41927;SDS011;27616;51.420;6.788;2023-01-16T08:16:16;3.97;;;1.20;;
41927;SDS011;27616;51.420;6.788;2023-01-16T08:18:42;2.87;;;0.97;;
41927;SDS011;27616;51.420;6.788;2023-01-16T08:21:08;4.93;;;1.00;;
41927;SDS011;27616;51.420;6.788;2023-01-16T08:23:33;5.50;;;1.33;;
41927;SDS011;27616;51.420;6.788;2023-01-16T08:25:59;7.17;;;1.37;;
41927;SDS011;27616;51.420;6.788;2023-01-16T08:28:25;1.63;;;0.40;;
41927;SDS011;27616;51.420;6.788;2023-01-16T08:30:51;6.30;;;1.10;;
41927;SDS011;27616;51.420;6.788;2023-01-16T08:33:17;4.60;;;0.90;;
41927;SDS011;27616;51.420;6.788;2023-01-16T08:35:43;2.17;;;0.80;;
41927;SDS011;27616;51.420;6.788;2023-01-16T08:38:08;4.60;;;1.10;;
41927;SDS011;27616;51.420;6.788;2023-01-16T08:40:34;6.00;;;0.93;;
41927;SDS011;27616;51.420;6.788;2023-01-16T08:42:59;5.23;;;1.20;;
41927;SDS011;27616;51.420;6.788;2023-01-16T08:45:44;2.20;;;0.60;;
41927;SDS011;27616;51.420;6.788;2023-01-16T08:48:28;4.40;;;1.00;;
41927;SDS011;27616;51.420;6.788;2023-01-16T08:51:17;5.07;;;1.30;;
41927;SDS011;27616;51.420;6.788;2023-01-16T08:53:48;4.67;;;0.90;;
41927;SDS011;27616;51.420;6.788;2023-01-16T08:56:15;5.10;;;1.10;;
41927;SDS011;27616;51.420;6.788;2023-01-16T08:58:41;5.30;;;1.00;;
41927;SDS011;27616;51.420;6.788;2023-01-16T09:01:06;4.53;;;0.80;;
41927;SDS011;27616;51.420;6.788;2023-01-16T09:03:32;1.80;;;0.80;;
41927;SDS011;27616;51.420;6.788;2023-01-16T09:05:59;2.23;;;0.60;;
41927;SDS011;27616;51.420;6.788;2023-01-16T09:08:26;1.37;;;0.57;;
41927;SDS011;27616;51.420;6.788;2023-01-16T09:10:51;4.97;;;0.80;;
41927;SDS011;27616;51.420;6.788;2023-01-16T09:13:36;5.13;;;0.93;;
41927;SDS011;27616;51.420;6.788;2023-01-16T09:16:14;2.53;;;1.00;;
41927;SDS011;27616;51.420;6.788;2023-01-16T09:18:47;3.13;;;0.57;;
41927;SDS011;27616;51.420;6.788;2023-01-16T09:21:13;0.63;;;0.40;;
41927;SDS011;27616;51.420;6.788;2023-01-16T09:23:39;2.63;;;0.80;;
41927;SDS011;27616;51.420;6.788;2023-01-16T09:26:05;3.97;;;0.80;;
41927;SDS011;27616;51.420;6.788;2023-01-16T09:28:31;4.13;;;1.03;;
41927;SDS011;27616;51.420;6.788;2023-01-16T09:30:57;2.60;;;0.90;;
41927;SDS011;27616;51.420;6.788;2023-01-16T09:33:23;1.33;;;0.40;;
41927;SDS011;27616;51.420;6.788;2023-01-16T09:35:48;6.00;;;1.00;;
41927;SDS011;27616;51.420;6.788;2023-01-16T09:38:14;4.40;;;0.90;;
41927;SDS011;27616;51.420;6.788;2023-01-16T09:40:42;1.43;;;0.77;;
41927;SDS011;27616;51.420;6.788;2023-01-16T09:43:26;3.60;;;0.70;;
41927;SDS011;27616;51.420;6.788;2023-01-16T09:46:01;6.30;;;0.80;;
41927;SDS011;27616;51.420;6.788;2023-01-16T09:48:35;2.47;;;0.70;;
41927;SDS011;27616;51.420;6.788;2023-01-16T09:51:16;1.70;;;0.53;;
41927;SDS011;27616;51.420;6.788;2023-01-16T09:53:51;1.60;;;0.50;;
41927;SDS011;27616;51.420;6.788;2023-01-16T09:56:46;1.93;;;0.70;;
41927;SDS011;27616;51.420;6.788;2023-01-16T09:59:35;1.17;;;0.57;;
41927;SDS011;27616;51.420;6.788;2023-01-16T10:04:49;1.60;;;0.50;;
41927;SDS011;27616;51.420;6.788;2023-01-16T10:16:00;1.03;;;0.50;;
41927;SDS011;27616;51.420;6.788;2023-01-16T10:29:39;2.43;;;0.50;;
41927;SDS011;27616;51.420;6.788;2023-01-16T10:34:58;0.93;;;0.43;;
41927;SDS011;27616;51.420;6.788;2023-01-16T10:37:37;4.37;;;1.20;;
41927;SDS011;27616;51.420;6.788;2023-01-16T10:40:16;2.50;;;0.80;;
41927;SDS011;27616;51.420;6.788;2023-01-16T10:42:54;1.77;;;0.50;;
41927;SDS011;27616;51.420;6.788;2023-01-16T10:45:45;2.83;;;0.70;;
41927;SDS011;27616;51.420;6.788;2023-01-16T10:48:31;0.90;;;0.40;;
41927;SDS011;27616;51.420;6.788;2023-01-16T10:51:16;2.83;;;0.70;;
41927;SDS011;27616;51.420;6.788;2023-01-16T10:53:42;4.63;;;0.90;;
41927;SDS011;27616;51.420;6.788;2023-01-16T10:56:09;1.63;;;0.60;;
41927;SDS011;27616;51.420;6.788;2023-01-16T10:58:36;4.00;;;0.60;;
41927;SDS011;27616;51.420;6.788;2023-01-16T11:01:15;0.77;;;0.40;;
41927;SDS011;27616;51.420;6.788;2023-01-16T11:03:47;1.53;;;0.83;;
41927;SDS011;27616;51.420;6.788;2023-01-16T11:08:51;3.33;;;0.40;;
41927;SDS011;27616;51.420;6.788;2023-01-16T11:11:20;0.70;;;0.20;;
41927;SDS011;27616;51.420;6.788;2023-01-16T11:14:24;1.50;;;0.70;;
41927;SDS011;27616;51.420;6.788;2023-01-16T11:20:13;1.43;;;0.30;;
41927;SDS011;27616;51.420;6.788;2023-01-16T11:22:44;2.47;;;0.50;;
41927;SDS011;27616;51.420;6.788;2023-01-16T11:25:14;1.33;;;0.50;;
41927;SDS011;27616;51.420;6.788;2023-01-16T11:27:45;1.50;;;0.30;;
41927;SDS011;27616;51.420;6.788;2023-01-16T11:30:15;0.52;;;0.10;;
41927;SDS011;27616;51.420;6.788;2023-01-16T11:32:51;1.33;;;0.40;;
41927;SDS011;27616;51.420;6.788;2023-01-16T11:35:19;0.97;;;0.40;;
41927;SDS011;27616;51.420;6.788;2023-01-16T11:37:48;1.40;;;0.50;;
41927;SDS011;27616;51.420;6.788;2023-01-16T11:40:19;0.57;;;0.27;;
41927;SDS011;27616;51.420;6.788;2023-01-16T11:42:54;2.00;;;0.40;;
41927;SDS011;27616;51.420;6.788;2023-01-16T11:45:42;1.37;;;0.50;;
41927;SDS011;27616;51.420;6.788;2023-01-16T11:48:33;1.47;;;0.53;;
41927;SDS011;27616;51.420;6.788;2023-01-16T11:51:09;2.87;;;0.40;;
41927;SDS011;27616;51.420;6.788;2023-01-16T11:53:39;0.90;;;0.37;;
41927;SDS011;27616;51.420;6.788;2023-01-16T12:02:14;1.42;;;0.50;;
41927;SDS011;27616;51.420;6.788;2023-01-16T12:16:42;2.63;;;0.93;;
41927;SDS011;27616;51.420;6.788;2023-01-16T12:36:29;1.03;;;0.43;;
41927;SDS011;27616;51.420;6.788;2023-01-16T12:39:21;1.13;;;0.20;;
41927;SDS011;27616;51.420;6.788;2023-01-16T12:59:34;8.07;;;2.60;;
41927;SDS011;27616;51.420;6.788;2023-01-16T13:02:12;3.43;;;0.90;;
41927;SDS011;27616;51.420;6.788;2023-01-16T13:04:48;0.97;;;0.50;;
41927;SDS011;27616;51.420;6.788;2023-01-16T13:07:17;3.83;;;0.60;;
41927;SDS011;27616;51.420;6.788;2023-01-16T13:13:03;0.60;;;0.30;;
41927;SDS011;27616;51.420;6.788;2023-01-16T13:15:48;1.40;;;0.40;;
41927;SDS011;27616;51.420;6.788;2023-01-16T13:18:42;1.33;;;0.60;;
41927;SDS011;27616;51.420;6.788;2023-01-16T13:21:20;1.87;;;0.60;;
41927;SDS011;27616;51.420;6.788;2023-01-16T13:24:01;8.33;;;3.17;;
41927;SDS011;27616;51.420;6.788;2023-01-16T13:26:37;20.37;;;7.40;;
41927;SDS011;27616;51.420;6.788;2023-01-16T13:29:10;10.93;;;4.67;;
41927;SDS011;27616;51.420;6.788;2023-01-16T13:31:52;2.83;;;1.60;;
41927;SDS011;27616;51.420;6.788;2023-01-16T13:34:39;3.30;;;0.90;;
41927;SDS011;27616;51.420;6.788;2023-01-16T13:37:16;1.00;;;0.63;;
41927;SDS011;27616;51.420;6.788;2023-01-16T13:42:22;2.63;;;0.53;;
41927;SDS011;27616;51.420;6.788;2023-01-16T13:44:54;1.10;;;0.30;;
41927;SDS011;27616;51.420;6.788;2023-01-16T13:47:43;1.50;;;0.50;;
41927;SDS011;27616;51.420;6.788;2023-01-16T13:50:25;3.00;;;0.70;;
41927;SDS011;27616;51.420;6.788;2023-01-16T13:52:54;1.07;;;0.60;;
41927;SDS011;27616;51.420;6.788;2023-01-16T13:55:31;0.93;;;0.50;;
41927;SDS011;27616;51.420;6.788;2023-01-16T14:00:46;1.33;;;0.60;;
41927;SDS011;27616;51.420;6.788;2023-01-16T14:03:24;2.70;;;0.70;;
41927;SDS011;27616;51.420;6.788;2023-01-16T14:06:14;4.77;;;1.43;;
41927;SDS011;27616;51.420;6.788;2023-01-16T14:08:51;10.20;;;4.07;;
41927;SDS011;27616;51.420;6.788;2023-01-16T14:17:59;6.27;;;2.90;;
41927;SDS011;27616;51.420;6.788;2023-01-16T14:23:41;1.80;;;0.63;;
41927;SDS011;27616;51.420;6.788;2023-01-16T14:26:32;2.87;;;0.63;;
41927;SDS011;27616;51.420;6.788;2023-01-16T14:29:04;1.80;;;0.50;;
41927;SDS011;27616;51.420;6.788;2023-01-16T14:31:44;2.57;;;0.60;;
41927;SDS011;27616;51.420;6.788;2023-01-16T14:34:32;1.33;;;0.70;;
41927;SDS011;27616;51.420;6.788;2023-01-16T14:40:12;3.80;;;2.50;;
41927;SDS011;27616;51.420;6.788;2023-01-16T14:42:50;9.23;;;3.60;;
41927;SDS011;27616;51.420;6.788;2023-01-16T14:45:40;11.47;;;6.13;;
41927;SDS011;27616;51.420;6.788;2023-01-16T14:57:12;2.00;;;0.83;;
41927;SDS011;27616;51.420;6.788;2023-01-16T14:59:45;2.23;;;0.80;;
41927;SDS011;27616;51.420;6.788;2023-01-16T15:04:51;2.47;;;0.50;;
41927;SDS011;27616;51.420;6.788;2023-01-16T15:10:18;1.53;;;0.43;;
41927;SDS011;27616;51.420;6.788;2023-01-16T15:12:50;1.30;;;0.33;;
41927;SDS011;27616;51.420;6.788;2023-01-16T15:15:20;2.00;;;0.70;;
41927;SDS011;27616;51.420;6.788;2023-01-16T15:17:48;1.80;;;0.90;;
41927;SDS011;27616;51.420;6.788;2023-01-16T15:20:35;0.30;;;0.20;;
41927;SDS011;27616;51.420;6.788;2023-01-16T15:31:20;2.90;;;0.60;;
41927;SDS011;27616;51.420;6.788;2023-01-16T15:36:30;2.33;;;0.73;;
41927;SDS011;27616;51.420;6.788;2023-01-16T15:44:38;2.73;;;1.30;;
41927;SDS011;27616;51.420;6.788;2023-01-16T15:49:54;33.10;;;14.57;;
41927;SDS011;27616;51.420;6.788;2023-01-16T15:52:45;41.47;;;18.23;;
41927;SDS011;27616;51.420;6.788;2023-01-16T15:55:17;17.50;;;6.83;;
41927;SDS011;27616;51.420;6.788;2023-01-16T15:57:48;5.83;;;2.00;;
41927;SDS011;27616;51.420;6.788;2023-01-16T16:00:52;4.57;;;1.38;;
41927;SDS011;27616;51.420;6.788;2023-01-16T16:05:47;3.53;;;0.70;;
41927;SDS011;27616;51.420;6.788;2023-01-16T16:08:19;1.63;;;0.90;;
41927;SDS011;27616;51.420;6.788;2023-01-16T16:10:54;1.77;;;0.60;;
41927;SDS011;27616;51.420;6.788;2023-01-16T16:13:41;2.10;;;0.90;;
41927;SDS011;27616;51.420;6.788;2023-01-16T16:16:18;2.13;;;0.80;;
41927;SDS011;27616;51.420;6.788;2023-01-16T16:19:02;1.97;;;0.73;;
41927;SDS011;27616;51.420;6.788;2023-01-16T16:21:42;3.27;;;1.43;;
41927;SDS011;27616;51.420;6.788;2023-01-16T16:24:33;2.50;;;1.30;;
41927;SDS011;27616;51.420;6.788;2023-01-16T16:27:07;4.10;;;1.00;;
41927;SDS011;27616;51.420;6.788;2023-01-16T16:29:39;2.00;;;1.00;;
41927;SDS011;27616;51.420;6.788;2023-01-16T16:32:05;2.83;;;1.10;;
41927;SDS011;27616;51.420;6.788;2023-01-16T16:34:39;2.10;;;0.97;;
41927;SDS011;27616;51.420;6.788;2023-01-16T16:37:14;1.63;;;0.90;;
41927;SDS011;27616;51.420;6.788;2023-01-16T16:39:53;2.87;;;0.90;;
41927;SDS011;27616;51.420;6.788;2023-01-16T16:47:35;4.03;;;0.97;;
41927;SDS011;27616;51.420;6.788;2023-01-16T16:50:01;2.80;;;0.90;;
41927;SDS011;27616;51.420;6.788;2023-01-16T16:52:46;3.97;;;1.50;;
41927;SDS011;27616;51.420;6.788;2023-01-16T16:55:25;2.27;;;0.90;;
41927;SDS011;27616;51.420;6.788;2023-01-16T16:58:04;2.20;;;1.10;;
41927;SDS011;27616;51.420;6.788;2023-01-16T17:00:36;1.40;;;0.90;;
41927;SDS011;27616;51.420;6.788;2023-01-16T17:03:11;2.73;;;1.20;;
41927;SDS011;27616;51.420;6.788;2023-01-16T17:05:42;5.17;;;1.33;;
41927;SDS011;27616;51.420;6.788;2023-01-16T17:08:16;1.67;;;0.97;;
41927;SDS011;27616;51.420;6.788;2023-01-16T17:10:55;3.57;;;1.00;;
41927;SDS011;27616;51.420;6.788;2023-01-16T17:13:22;3.63;;;0.83;;
41927;SDS011;27616;51.420;6.788;2023-01-16T17:15:50;2.20;;;1.00;;
41927;SDS011;27616;51.420;6.788;2023-01-16T17:18:19;3.20;;;1.40;;
41927;SDS011;27616;51.420;6.788;2023-01-16T17:20:47;2.07;;;1.10;;
41927;SDS011;27616;51.420;6.788;2023-01-16T17:23:13;1.90;;;1.10;;
41927;SDS011;27616;51.420;6.788;2023-01-16T17:25:42;2.40;;;1.20;;
41927;SDS011;27616;51.420;6.788;2023-01-16T17:28:08;4.80;;;1.50;;
41927;SDS011;27616;51.420;6.788;2023-01-16T17:30:35;3.47;;;1.30;;
41927;SDS011;27616;51.420;6.788;2023-01-16T17:33:02;3.27;;;1.60;;
41927;SDS011;27616;51.420;6.788;2023-01-16T17:35:35;2.40;;;1.37;;
41927;SDS011;27616;51.420;6.788;2023-01-16T17:38:07;3.63;;;1.63;;
41927;SDS011;27616;51.420;6.788;2023-01-16T17:40:36;2.63;;;1.60;;
41927;SDS011;27616;51.420;6.788;2023-01-16T17:43:02;4.80;;;2.20;;
41927;SDS011;27616;51.420;6.788;2023-01-16T17:45:47;4.90;;;2.30;;
41927;SDS011;27616;51.420;6.788;2023-01-16T17:48:25;6.30;;;3.27;;
41927;SDS011;27616;51.420;6.788;2023-01-16T17:50:52;8.77;;;3.80;;
41927;SDS011;27616;51.420;6.788;2023-01-16T17:53:20;8.33;;;3.80;;
41927;SDS011;27616;51.420;6.788;2023-01-16T17:55:48;6.40;;;3.70;;
41927;SDS011;27616;51.420;6.788;2023-01-16T17:58:34;5.27;;;3.53;;
41927;SDS011;27616;51.420;6.788;2023-01-16T18:01:13;7.83;;;4.33;;
41927;SDS011;27616;51.420;6.788;2023-01-16T18:03:48;6.03;;;4.30;;
41927;SDS011;27616;51.420;6.788;2023-01-16T18:06:24;8.70;;;4.93;;
41927;SDS011;27616;51.420;6.788;2023-01-16T18:08:51;7.60;;;5.40;;
41927;SDS011;27616;51.420;6.788;2023-01-16T18:11:18;13.97;;;8.43;;
41927;SDS011;27616;51.420;6.788;2023-01-16T18:14:03;17.17;;;9.03;;
41927;SDS011;27616;51.420;6.788;2023-01-16T18:16:47;18.27;;;9.53;;
41927;SDS011;27616;51.420;6.788;2023-01-16T18:19:31;18.07;;;9.23;;
41927;SDS011;27616;51.420;6.788;2023-01-16T18:21:58;15.30;;;7.40;;
41927;SDS011;27616;51.420;6.788;2023-01-16T18:24:27;13.88;;;6.85;;